createdAt,value
2022-11-10T00:03:28.407Z,101406.97
2022-11-10T00:08:48.581Z,101403.19
2022-11-10T00:14:29.017Z,101409.38
2022-11-10T00:19:49.224Z,101416.97
2022-11-10T00:25:09.458Z,101413.88
2022-11-10T00:30:29.844Z,101406.84
2022-11-10T00:35:49.799Z,101416.66
2022-11-10T00:41:10.034Z,101427.31
2022-11-10T00:46:30.026Z,101433.88
2022-11-10T00:51:50.124Z,101442.81
2022-11-10T00:57:11.125Z,101437.47
2022-11-10T01:02:31.262Z,101432.50
2022-11-10T01:08:02.877Z,101439.56
2022-11-10T01:13:29.787Z,101427.31
2022-11-10T01:18:55.423Z,101431.13
2022-11-10T01:24:19.349Z,101425.22
2022-11-10T01:29:39.502Z,101438.34
2022-11-10T01:34:59.873Z,101470.94
2022-11-10T01:40:20.878Z,101469.19
2022-11-10T01:45:41.469Z,101470.03
2022-11-10T01:51:12.073Z,101480.91
2022-11-10T01:56:36.213Z,101471.41
2022-11-10T02:02:07.113Z,101484.34
2022-11-10T02:07:28.091Z,101495.53
2022-11-10T02:12:50.230Z,101500.03
2022-11-10T02:18:10.431Z,101518.66
2022-11-10T02:23:30.721Z,101525.53
2022-11-10T02:28:50.953Z,101532.78
2022-11-10T02:34:14.106Z,101528.47
2022-11-10T02:39:34.503Z,101529.69
2022-11-10T02:44:55.792Z,101526.06
2022-11-10T02:50:21.013Z,101535.88
2022-11-10T02:55:47.570Z,101540.53
2022-11-10T03:01:20.210Z,101552.97
2022-11-10T03:06:40.695Z,101565.16
2022-11-10T03:12:01.064Z,101544.00
2022-11-10T03:17:21.410Z,101556.72
2022-11-10T03:22:41.412Z,101565.69
2022-11-10T03:28:01.527Z,101564.16
2022-11-10T03:33:22.193Z,101557.25
2022-11-10T03:38:42.851Z,101571.75
2022-11-10T03:44:02.940Z,101579.31
2022-11-10T03:49:23.481Z,101586.56
2022-11-10T03:54:43.511Z,101599.69
2022-11-10T04:00:04.774Z,101607.59
2022-11-10T04:05:48.123Z,101606.56
2022-11-10T04:11:10.695Z,101605.19
2022-11-10T04:16:30.773Z,101608.28
2022-11-10T04:21:50.951Z,101631.03
2022-11-10T04:27:11.354Z,101647.88
2022-11-10T04:32:31.494Z,101664.81
2022-11-10T04:37:51.865Z,101665.31
2022-11-10T04:43:11.977Z,101666.88
2022-11-10T04:48:33.225Z,101667.03
2022-11-10T04:53:53.775Z,101667.19
2022-11-10T04:59:14.016Z,101671.34
2022-11-10T05:04:34.052Z,101677.06
2022-11-10T05:09:54.251Z,101667.56
2022-11-10T05:15:14.755Z,101679.59
2022-11-10T05:20:35.166Z,101689.53
2022-11-10T05:25:55.585Z,101680.69
2022-11-10T05:31:16.094Z,101693.00
2022-11-10T05:36:36.161Z,101698.50
2022-11-10T05:41:56.195Z,101702.63
2022-11-10T05:47:16.242Z,101711.03
2022-11-10T05:52:43.449Z,101724.44
2022-11-10T05:58:06.837Z,101728.91
2022-11-10T06:03:27.622Z,101732.19
2022-11-10T06:08:48.755Z,101749.78
2022-11-10T06:14:08.721Z,101756.19
2022-11-10T06:19:29.052Z,101757.91
2022-11-10T06:24:49.136Z,101762.06
2022-11-10T06:30:10.018Z,101762.22
2022-11-10T06:35:30.878Z,101768.44
2022-11-10T06:40:50.828Z,101788.75
2022-11-10T06:46:10.914Z,101801.84
2022-11-10T06:51:31.303Z,101820.72
2022-11-10T06:56:51.673Z,101815.59
2022-11-10T07:02:15.413Z,101814.97
2022-11-10T07:07:35.526Z,101802.03
2022-11-10T07:12:56.383Z,101792.78
2022-11-10T07:18:16.873Z,101815.53
2022-11-10T07:23:37.722Z,101822.72
2022-11-10T07:28:58.164Z,101830.47
2022-11-10T07:34:18.359Z,101838.56
2022-11-10T07:39:38.425Z,101835.81
2022-11-10T07:44:58.411Z,101844.59
2022-11-10T07:50:18.996Z,101846.81
2022-11-10T07:55:46.128Z,101856.06
2022-11-10T08:01:29.647Z,101857.34
2022-11-10T08:06:50.212Z,101870.53
2022-11-10T08:12:10.443Z,101879.81
2022-11-10T08:17:30.639Z,101887.59
2022-11-10T08:22:58.782Z,101879.75
2022-11-10T08:28:20.015Z,101895.81
2022-11-10T08:33:40.293Z,101908.94
2022-11-10T08:39:08.748Z,101913.50
2022-11-10T08:44:44.336Z,101915.81
2022-11-10T08:50:09.196Z,101912.19
2022-11-10T08:55:36.987Z,101916.56
2022-11-10T09:00:57.312Z,101915.91
2022-11-10T09:06:18.403Z,101918.53
2022-11-10T09:11:39.603Z,101932.88
2022-11-10T09:17:00.092Z,101929.47
2022-11-10T09:22:20.449Z,101935.84
2022-11-10T09:27:41.033Z,101957.38
2022-11-10T09:33:01.398Z,101965.66
2022-11-10T09:38:21.944Z,101965.13
2022-11-10T09:44:02.097Z,101979.84
2022-11-10T09:49:25.111Z,101995.03
2022-11-10T09:54:51.538Z,102009.03
2022-11-10T10:00:18.020Z,102023.59
2022-11-10T10:05:47.437Z,102027.78
2022-11-10T10:11:33.553Z,102028.19
2022-11-10T10:17:08.719Z,102038.03
2022-11-10T10:22:55.610Z,102041.47
2022-11-10T10:28:19.054Z,102040.47
2022-11-10T10:33:39.841Z,102042.53
2022-11-10T10:39:05.547Z,102048.75
2022-11-10T10:44:26.064Z,102040.13
2022-11-10T10:49:49.731Z,102060.03
2022-11-10T10:55:13.149Z,102064.19
2022-11-10T11:00:43.344Z,102081.31
2022-11-10T11:06:17.627Z,102093.63
2022-11-10T11:11:41.239Z,102104.50
2022-11-10T11:17:19.496Z,102101.22
2022-11-10T11:22:56.888Z,102106.06
2022-11-10T11:28:20.761Z,102121.66
2022-11-10T11:34:23.441Z,102125.78
2022-11-10T11:40:38.326Z,102116.47
2022-11-10T11:46:29.198Z,102121.66
2022-11-10T11:52:14.661Z,102116.53
2022-11-10T11:58:15.999Z,102116.38
2022-11-10T12:03:44.035Z,102128.59
2022-11-10T12:09:27.213Z,102130.00
2022-11-10T12:15:43.425Z,102144.81
2022-11-10T12:21:24.243Z,102144.09
2022-11-10T12:26:45.400Z,102141.59
2022-11-10T12:32:17.534Z,102133.28
2022-11-10T12:37:44.423Z,102132.25
2022-11-10T12:43:40.858Z,102130.91
2022-11-10T12:49:17.558Z,102123.13
2022-11-10T12:54:41.290Z,102132.31
2022-11-10T13:00:32.423Z,102117.19
2022-11-10T13:05:59.346Z,102119.28
2022-11-10T13:11:31.220Z,102116.38
2022-11-10T13:16:54.486Z,102122.63
2022-11-10T13:22:36.996Z,102117.28
2022-11-10T13:27:57.160Z,102129.72
2022-11-10T13:33:24.689Z,102144.16
2022-11-10T13:38:45.964Z,102158.28
2022-11-10T13:44:21.785Z,102161.53
2022-11-10T13:49:54.308Z,102171.19
2022-11-10T13:55:27.794Z,102171.72
2022-11-10T14:01:12.131Z,102171.03
2022-11-10T14:06:48.477Z,102177.97
2022-11-10T14:12:25.820Z,102182.44
2022-11-10T14:17:58.197Z,102178.66
2022-11-10T14:23:32.039Z,102178.50
2022-11-10T14:28:55.198Z,102196.66
2022-11-10T14:34:25.343Z,102186.47
2022-11-10T14:39:46.513Z,102192.84
2022-11-10T14:45:29.720Z,102200.13
2022-11-10T14:50:55.601Z,102201.84
2022-11-10T14:56:36.838Z,102201.84
2022-11-10T15:02:00.595Z,102213.63
2022-11-10T15:07:22.038Z,102217.09
2022-11-10T15:13:05.555Z,102214.66
2022-11-10T15:18:29.420Z,102212.19
2022-11-10T15:24:03.372Z,102216.69
2022-11-10T15:29:24.700Z,102220.81
2022-11-10T15:34:45.732Z,102212.69
2022-11-10T15:40:27.776Z,102215.59
2022-11-10T15:45:53.149Z,102218.19
2022-11-10T15:51:15.744Z,102225.78
2022-11-10T15:56:38.677Z,102241.28
2022-11-10T16:01:59.520Z,102268.66
2022-11-10T16:07:21.408Z,102265.25
2022-11-10T16:12:42.018Z,102261.09
2022-11-10T16:18:02.674Z,102267.66
2022-11-10T16:23:25.778Z,102286.66
2022-11-10T16:28:47.844Z,102273.88
2022-11-10T16:34:13.843Z,102270.41
2022-11-10T16:39:45.643Z,102286.66
2022-11-10T16:45:06.550Z,102286.97
2022-11-10T16:50:32.071Z,102290.75
2022-11-10T16:55:52.356Z,102289.34
2022-11-10T17:01:34.161Z,102269.44
2022-11-10T17:06:55.742Z,102274.75
2022-11-10T17:12:16.240Z,102283.38
2022-11-10T17:17:37.221Z,102288.72
2022-11-10T17:22:57.953Z,102270.72
2022-11-10T17:28:18.846Z,102280.91
2022-11-10T17:33:40.254Z,102296.34
2022-11-10T17:39:00.926Z,102287.06
2022-11-10T17:44:21.181Z,102296.53
2022-11-10T17:49:52.295Z,102296.69
2022-11-10T17:55:21.675Z,102311.13
2022-11-10T18:00:43.024Z,102307.94
2022-11-10T18:06:06.449Z,102312.38
2022-11-10T18:11:27.094Z,102330.97
2022-11-10T18:16:47.490Z,102329.22
2022-11-10T18:22:07.737Z,102337.69
2022-11-10T18:27:29.141Z,102340.59
2022-11-10T18:32:49.224Z,102326.69
2022-11-10T18:38:15.483Z,102330.59
2022-11-10T18:43:35.594Z,102329.91
2022-11-10T18:48:56.214Z,102330.78
2022-11-10T18:54:16.763Z,102341.25
2022-11-10T18:59:40.211Z,102341.97
2022-11-10T19:05:02.161Z,102334.16
2022-11-10T19:10:22.673Z,102327.59
2022-11-10T19:15:43.106Z,102331.69
2022-11-10T19:21:10.998Z,102344.78
2022-11-10T19:26:33.349Z,102346.81
2022-11-10T19:31:53.691Z,102350.00
2022-11-10T19:37:15.083Z,102346.34
2022-11-10T19:42:35.596Z,102339.81
2022-11-10T19:48:15.040Z,102334.16
2022-11-10T19:54:05.782Z,102356.94
2022-11-10T19:59:26.843Z,102359.84
2022-11-10T20:05:08.021Z,102350.53
2022-11-10T20:10:30.605Z,102356.94
2022-11-10T20:16:22.667Z,102349.38
2022-11-10T20:22:12.818Z,102341.81
2022-11-10T20:27:34.617Z,102338.75
2022-11-10T20:32:59.728Z,102347.63
2022-11-10T20:38:20.035Z,102350.53
2022-11-10T20:44:02.461Z,102374.59
2022-11-10T20:49:31.937Z,102371.47
2022-11-10T20:54:55.456Z,102389.00
2022-11-10T21:00:29.409Z,102407.88
2022-11-10T21:05:57.662Z,102411.81
2022-11-10T21:11:40.536Z,102423.31
2022-11-10T21:17:02.573Z,102421.41
2022-11-10T21:22:30.110Z,102429.69
2022-11-10T21:27:53.063Z,102456.28
2022-11-10T21:33:13.777Z,102462.94
2022-11-10T21:38:36.913Z,102462.06
2022-11-10T21:43:59.440Z,102439.88
2022-11-10T21:49:19.449Z,102442.06
2022-11-10T21:54:40.103Z,102442.97
2022-11-10T22:00:00.519Z,102441.09
2022-11-10T22:05:20.684Z,102429.44
2022-11-10T22:10:59.721Z,102443.53
2022-11-10T22:16:44.279Z,102468.09
2022-11-10T22:22:04.648Z,102469.66
2022-11-10T22:27:24.830Z,102454.88
2022-11-10T22:32:45.087Z,102460.25
2022-11-10T22:38:06.534Z,102472.59
2022-11-10T22:43:45.727Z,102487.69
2022-11-10T22:49:09.667Z,102489.56
2022-11-10T22:54:29.985Z,102482.91
2022-11-10T22:59:50.432Z,102484.03
2022-11-10T23:05:10.890Z,102483.63
2022-11-10T23:10:31.297Z,102487.38
2022-11-10T23:15:54.189Z,102491.72
2022-11-10T23:21:16.687Z,102499.88
2022-11-10T23:26:36.781Z,102502.47
2022-11-10T23:31:57.276Z,102508.28
2022-11-10T23:37:17.576Z,102524.69
2022-11-10T23:42:37.692Z,102523.69
2022-11-10T23:47:57.803Z,102528.03
2022-11-10T23:53:19.219Z,102521.66
2022-11-10T23:58:39.853Z,102515.41
